This is the latest recevied weather packets stored in our database for station/object K0SDS. If no packets are shown the sender has not sent any weather packets the latest 1 day(s).
| Time | Temp. | Humidity | Pressure | Rain* | Wind** | Luminosity | Snow |
|---|---|---|---|---|---|---|---|
| 1778034474 | 10.56° C | 68% | 1012.9 hPa | 0 mm | 0.45 m/s, 84° | 0 W/m² | - |
| 1778034172 | 10.56° C | 67% | 1012.6 hPa | 0 mm | 0 m/s | 0 W/m² | - |
| 1778033870 | 10.56° C | 67% | 1012.6 hPa | 0 mm | 1.34 m/s, 18° | 0 W/m² | - |
| 1778033567 | 10.56° C | 68% | 1012.5 hPa | 0 mm | 0.45 m/s, 69° | 0 W/m² | - |
| 1778033263 | 10.56° C | 67% | 1012.4 hPa | 0 mm | 0.45 m/s, 61° | 0 W/m² | - |
| 1778032961 | 10.56° C | 67% | 1012.4 hPa | 0 mm | 0.45 m/s, 43° | 0 W/m² | - |
| 1778032659 | 10.56° C | 68% | 1012.3 hPa | 0 mm | 0.89 m/s, 44° | 0 W/m² | - |
| 1778032356 | 10.56° C | 67% | 1012.1 hPa | 0 mm | 0.89 m/s, 27° | 0 W/m² | - |
| 1778032053 | 10.56° C | 72% | 1012.2 hPa | 0 mm | 0.45 m/s, 84° | 0 W/m² | - |
| 1778031749 | 10.56° C | 72% | 1012.1 hPa | 0 mm | 0.45 m/s, 61° | 0 W/m² | - |
| 1778031446 | 10.56° C | 78% | 1012.2 hPa | 0 mm | 0 m/s | 0 W/m² | - |
| 1778031144 | 10.56° C | 79% | 1012 hPa | 0 mm | 0 m/s | 0 W/m² | - |
| 1778030840 | 10.56° C | 80% | 1012.2 hPa | 0 mm | 0 m/s | 0 W/m² | - |
| 1778030537 | 10.56° C | 78% | 1011.9 hPa | 0 mm | 0.45 m/s, 77° | 0 W/m² | - |
| 1778030234 | 10.56° C | 78% | 1012.1 hPa | 0 mm | 0.45 m/s, 71° | 0 W/m² | - |
| 1778029930 | 10.56° C | 76% | 1012 hPa | 0 mm | 0 m/s | 0 W/m² | - |
| 1778029629 | 11.11° C | 76% | 1011.9 hPa | 0 mm | 0 m/s | 0 W/m² | - |
| 1778029326 | 11.11° C | 76% | 1011.9 hPa | 0 mm | 0 m/s | 2 W/m² | - |
| 1778029023 | 11.11° C | 72% | 1011.7 hPa | 0 mm | 0 m/s | 3 W/m² | - |
| 1778028719 | 11.11° C | 67% | 1011.6 hPa | 0 mm | 0 m/s | 5 W/m² | - |
| 1778028415 | 11.67° C | 67% | 1011.5 hPa | 0 mm | 0 m/s | 9 W/m² | - |
| 1778028113 | 11.67° C | 66% | 1011.4 hPa | 0 mm | 0.45 m/s, 81° | 11 W/m² | - |
| 1778027808 | 11.67° C | 66% | 1011.2 hPa | 0 mm | 0 m/s | 14 W/m² | - |
| 1778027505 | 11.67° C | 64% | 1011.4 hPa | 0 mm | 0.45 m/s, 67° | 18 W/m² | - |
| 1778027201 | 12.22° C | 62% | 1011.4 hPa | 0 mm | 0.89 m/s, 69° | 18 W/m² | - |
* Rain latest hour (hover to see other rain measurements)
** Current wind speed in m/s (hover to see current wind gust speed)